Terminal Aerodrome Forecast
Issued by NWS Tulsa, OK

Home | Current Version | Previous Version | Text Only | Print | Product List | Glossary On
Versions: 1 2 3 4 5 6 7 8 9 10 11 12 13
008
FTUS44 KTSA 292334
TAFFSM
TAF
KFSM 292334Z 3000/3024 12012G22KT P6SM VCTS BKN035CB
      TEMPO 3000/3004 1SM +TSRA OVC007CB
     FM300400 11012G20KT 4SM -TSRA OVC015CB
      TEMPO 3004/3008 2SM TSRA BR OVC007CB
     FM300800 27012KT 5SM -RA BR OVC012
     FM301200 22012G20KT P6SM OVC015
     FM301500 24020G30KT P6SM OVC025=

USA.gov is the U.S. government's official web portal to all federal, state and local government web resources and services.